createdAt,value
2018-08-28T00:02:39.037Z,93.20
2018-08-28T00:06:03.747Z,93.90
2018-08-28T00:09:28.454Z,93.50
2018-08-28T00:12:53.165Z,93.50
2018-08-28T00:16:17.914Z,93.90
2018-08-28T00:19:42.691Z,93.50
2018-08-28T00:23:07.502Z,93.70
2018-08-28T00:26:32.255Z,94.00
2018-08-28T00:29:56.986Z,94.50
2018-08-28T00:33:21.817Z,95.00
2018-08-28T00:36:46.663Z,94.50
2018-08-28T00:40:11.562Z,94.70
2018-08-28T00:43:36.353Z,95.10
2018-08-28T00:47:01.037Z,94.40
2018-08-28T00:50:25.872Z,95.20
2018-08-28T00:53:50.574Z,94.80
2018-08-28T00:57:15.195Z,95.90
2018-08-28T01:00:39.871Z,94.90
2018-08-28T01:04:04.540Z,95.00
2018-08-28T01:07:29.294Z,94.70
2018-08-28T01:10:53.932Z,95.10
2018-08-28T01:14:18.601Z,95.60
2018-08-28T01:17:43.337Z,95.40
2018-08-28T01:21:08.037Z,95.40
2018-08-28T01:24:32.679Z,95.80
2018-08-28T01:27:57.359Z,96.20
2018-08-28T01:31:22.005Z,96.40
2018-08-28T01:34:46.661Z,96.80
2018-08-28T01:38:11.324Z,97.40
2018-08-28T01:41:36.005Z,97.10
2018-08-28T01:45:00.667Z,96.90
2018-08-28T01:48:25.349Z,96.80
2018-08-28T01:51:50.001Z,96.30
2018-08-28T01:55:14.667Z,96.30
2018-08-28T01:58:39.375Z,96.50
2018-08-28T02:02:04.074Z,96.90
2018-08-28T02:05:28.773Z,96.90
2018-08-28T02:08:53.480Z,97.60
2018-08-28T02:12:18.155Z,97.70
2018-08-28T02:15:42.810Z,97.60
2018-08-28T02:19:07.521Z,97.20
2018-08-28T02:22:32.103Z,97.10
2018-08-28T02:25:57.168Z,97.50
2018-08-28T02:29:21.799Z,97.50
2018-08-28T02:32:46.495Z,97.10
2018-08-28T02:36:11.181Z,97.00
2018-08-28T02:39:35.902Z,96.80
2018-08-28T02:43:00.627Z,97.20
2018-08-28T02:46:25.286Z,97.50
2018-08-28T02:49:49.969Z,97.20
2018-08-28T02:53:14.651Z,97.50
2018-08-28T02:56:39.339Z,97.20
2018-08-28T03:00:03.979Z,97.20
2018-08-28T03:03:28.616Z,96.90
2018-08-28T03:06:53.345Z,96.40
2018-08-28T03:10:18.025Z,96.50
2018-08-28T03:13:42.805Z,96.60
2018-08-28T03:17:07.671Z,96.40
2018-08-28T03:20:32.325Z,96.30
2018-08-28T03:23:57.050Z,96.30
2018-08-28T03:27:21.701Z,95.90
2018-08-28T03:30:46.370Z,96.00
2018-08-28T03:34:11.054Z,96.00
2018-08-28T03:37:35.773Z,96.00
2018-08-28T03:41:00.655Z,96.20
2018-08-28T03:45:54.456Z,96.10
2018-08-28T03:49:25.858Z,95.80
2018-08-28T03:52:50.628Z,96.40
2018-08-28T03:56:15.341Z,96.10
2018-08-28T03:59:40.011Z,96.30
2018-08-28T04:03:04.705Z,96.20
2018-08-28T04:06:29.559Z,96.00
2018-08-28T04:09:54.253Z,96.00
2018-08-28T04:13:19.041Z,96.20
2018-08-28T04:16:43.809Z,96.60
2018-08-28T04:20:08.600Z,96.00
2018-08-28T04:23:33.307Z,96.40
2018-08-28T04:26:57.964Z,96.10
2018-08-28T04:30:22.702Z,95.90
2018-08-28T04:33:47.394Z,96.00
2018-08-28T04:37:12.236Z,96.20
2018-08-28T04:40:36.933Z,96.10
2018-08-28T04:44:01.651Z,96.00
2018-08-28T04:47:26.464Z,95.90
2018-08-28T04:50:51.187Z,95.50
2018-08-28T04:54:16.011Z,95.10
2018-08-28T04:57:40.603Z,95.50
2018-08-28T05:01:05.402Z,96.00
2018-08-28T05:04:30.249Z,96.30
2018-08-28T05:07:55.089Z,96.00
2018-08-28T05:14:53.485Z,95.10
2018-08-28T05:18:18.388Z,95.50
2018-08-28T05:21:43.484Z,94.90
2018-08-28T05:25:08.618Z,94.50
2018-08-28T05:28:33.586Z,94.70
2018-08-28T05:31:58.275Z,94.90
2018-08-28T05:35:22.934Z,94.70
2018-08-28T05:38:47.693Z,95.00
2018-08-28T05:42:12.578Z,95.90
2018-08-28T05:45:37.366Z,96.20
2018-08-28T05:49:02.356Z,96.70
2018-08-28T05:52:27.070Z,96.80
2018-08-28T05:55:51.842Z,97.10
2018-08-28T05:59:16.600Z,96.90
2018-08-28T06:02:41.450Z,97.10
2018-08-28T06:06:06.470Z,96.60
2018-08-28T06:09:31.361Z,96.70
2018-08-28T06:12:56.329Z,96.60
2018-08-28T06:16:21.122Z,97.00
2018-08-28T06:19:47.008Z,96.70
2018-08-28T06:23:11.651Z,96.40
2018-08-28T06:26:36.396Z,96.40
2018-08-28T06:30:01.267Z,96.20
2018-08-28T06:33:26.094Z,96.40
2018-08-28T06:36:50.851Z,96.60
2018-08-28T06:40:15.477Z,96.70
2018-08-28T06:43:42.159Z,96.60
2018-08-28T06:47:08.074Z,96.20
2018-08-28T06:50:33.854Z,96.30
2018-08-28T06:53:59.070Z,95.60
2018-08-28T06:57:24.995Z,95.80
2018-08-28T07:00:50.289Z,96.40
2018-08-28T07:04:15.264Z,95.70
2018-08-28T07:07:41.000Z,95.10
2018-08-28T07:11:07.086Z,94.90
2018-08-28T07:14:31.823Z,94.70
2018-08-28T07:17:57.304Z,94.30
2018-08-28T07:21:22.069Z,94.20
2018-08-28T07:24:46.986Z,94.30
2018-08-28T07:28:11.664Z,93.90
2018-08-28T07:31:36.520Z,93.80
2018-08-28T07:35:03.063Z,93.00
2018-08-28T07:38:27.934Z,92.90
2018-08-28T07:41:52.759Z,92.70
2018-08-28T07:45:17.642Z,92.40
2018-08-28T07:48:42.450Z,92.40
2018-08-28T07:52:07.375Z,92.00
2018-08-28T07:55:32.181Z,92.00
2018-08-28T07:58:58.165Z,92.00
2018-08-28T08:02:23.405Z,92.20
2018-08-28T08:05:50.830Z,92.10
2018-08-28T08:09:15.916Z,92.00
2018-08-28T08:12:41.709Z,92.30
2018-08-28T08:16:06.688Z,92.20
2018-08-28T08:19:31.398Z,91.90
2018-08-28T08:22:56.786Z,91.70
2018-08-28T08:26:21.501Z,91.80
2018-08-28T08:29:47.412Z,91.80
2018-08-28T08:33:12.913Z,92.00
2018-08-28T08:36:38.267Z,91.80
2018-08-28T08:40:03.068Z,91.80
2018-08-28T08:43:28.706Z,91.90
2018-08-28T08:46:53.323Z,91.80
2018-08-28T08:50:18.240Z,92.00
2018-08-28T08:53:43.045Z,91.90
2018-08-28T08:57:08.196Z,91.80
2018-08-28T09:00:34.591Z,91.60
2018-08-28T09:03:59.739Z,90.90
2018-08-28T09:07:24.632Z,91.00
2018-08-28T09:10:49.397Z,90.80
2018-08-28T09:14:14.547Z,91.00
2018-08-28T09:17:39.271Z,91.10
2018-08-28T09:21:08.865Z,91.50
2018-08-28T09:24:35.839Z,91.30
2018-08-28T09:28:01.538Z,91.20
2018-08-28T09:31:28.430Z,91.20
2018-08-28T09:34:54.037Z,90.60
2018-08-28T09:38:19.511Z,91.00
2018-08-28T09:41:46.385Z,90.90
2018-08-28T09:45:12.465Z,91.00
2018-08-28T09:48:38.235Z,90.80
2018-08-28T09:52:05.066Z,90.80
2018-08-28T09:55:31.073Z,90.50
2018-08-28T09:58:57.003Z,90.20
2018-08-28T10:02:24.885Z,90.20
2018-08-28T10:05:50.272Z,90.00
2018-08-28T10:09:16.649Z,90.10
2018-08-28T10:12:44.978Z,89.00
2018-08-28T10:16:10.553Z,88.80
2018-08-28T10:19:36.739Z,88.00
2018-08-28T10:23:03.378Z,88.60
2018-08-28T10:26:30.010Z,87.50
2018-08-28T10:29:57.174Z,88.30
2018-08-28T10:33:23.017Z,85.70
2018-08-28T10:36:48.499Z,85.70
2018-08-28T10:40:13.941Z,85.00
2018-08-28T10:43:39.249Z,84.80
2018-08-28T10:47:05.453Z,85.60
2018-08-28T10:50:31.768Z,84.90
2018-08-28T10:53:58.931Z,86.10
2018-08-28T10:57:23.679Z,84.70
2018-08-28T11:00:50.284Z,84.30
2018-08-28T11:04:15.065Z,84.40
2018-08-28T11:07:40.519Z,82.80
2018-08-28T11:11:05.439Z,82.80
2018-08-28T11:14:30.284Z,81.80
2018-08-28T11:17:55.127Z,82.80
2018-08-28T11:21:19.955Z,83.80
2018-08-28T11:24:44.697Z,83.70
2018-08-28T11:28:09.934Z,83.70
2018-08-28T11:31:34.657Z,83.50
2018-08-28T11:34:59.480Z,81.80
2018-08-28T11:38:24.731Z,81.30
2018-08-28T11:41:50.241Z,80.50
2018-08-28T11:45:14.895Z,79.50
2018-08-28T11:48:39.752Z,77.90
2018-08-28T11:52:05.739Z,78.10
2018-08-28T11:55:30.467Z,79.00
2018-08-28T11:58:55.154Z,78.60
2018-08-28T12:02:21.105Z,79.70
2018-08-28T12:05:46.661Z,77.90
2018-08-28T12:09:13.073Z,77.70
2018-08-28T12:12:38.181Z,75.00
2018-08-28T12:16:02.904Z,76.30
2018-08-28T12:19:27.543Z,74.20
2018-08-28T12:22:52.266Z,73.70
2018-08-28T12:26:16.927Z,72.90
2018-08-28T12:29:41.677Z,72.80
2018-08-28T12:33:05.906Z,75.40
2018-08-28T12:36:30.548Z,75.60
2018-08-28T12:39:55.293Z,73.60
2018-08-28T12:43:20.086Z,73.90
2018-08-28T12:46:44.748Z,73.70
2018-08-28T12:50:10.275Z,73.20
2018-08-28T12:53:34.911Z,71.60
2018-08-28T12:56:59.613Z,73.40
2018-08-28T13:00:24.337Z,71.60
2018-08-28T13:03:48.971Z,71.50
2018-08-28T13:07:13.572Z,70.40
2018-08-28T13:10:38.942Z,70.80
2018-08-28T13:14:03.573Z,71.30
2018-08-28T13:17:28.300Z,71.20
2018-08-28T13:20:52.970Z,71.50
2018-08-28T13:24:17.664Z,70.80
2018-08-28T13:27:42.338Z,71.20
2018-08-28T13:31:06.999Z,69.50
2018-08-28T13:34:31.617Z,68.40
2018-08-28T13:37:56.311Z,69.20
2018-08-28T13:41:21.024Z,69.60
2018-08-28T13:44:46.560Z,70.60
2018-08-28T13:48:11.239Z,71.80
2018-08-28T13:51:35.906Z,70.30
2018-08-28T13:55:00.585Z,69.10
2018-08-28T13:58:25.209Z,68.70
2018-08-28T14:01:49.901Z,69.50
2018-08-28T14:05:14.643Z,67.20
2018-08-28T14:08:39.881Z,67.60
2018-08-28T14:12:04.577Z,64.80
2018-08-28T14:15:29.257Z,63.70
2018-08-28T14:18:53.902Z,61.90
2018-08-28T14:22:18.623Z,61.70
2018-08-28T14:25:43.229Z,61.60
2018-08-28T14:29:08.036Z,63.10
2018-08-28T14:32:32.637Z,62.60
2018-08-28T14:35:57.270Z,62.20
2018-08-28T14:39:21.888Z,60.40
2018-08-28T14:42:46.703Z,61.00
2018-08-28T14:46:11.260Z,61.90
2018-08-28T14:49:35.942Z,61.70
2018-08-28T14:53:00.603Z,58.90
2018-08-28T14:56:25.300Z,60.00
2018-08-28T14:59:49.951Z,57.90
2018-08-28T15:03:15.440Z,56.80
2018-08-28T15:06:40.220Z,56.80
2018-08-28T15:10:06.043Z,55.70
2018-08-28T15:13:31.825Z,55.70
2018-08-28T15:16:56.573Z,56.00
2018-08-28T15:20:23.154Z,55.00
2018-08-28T15:23:47.807Z,53.90
2018-08-28T15:27:12.534Z,54.40
2018-08-28T15:30:37.143Z,54.40
2018-08-28T15:34:02.021Z,52.40
2018-08-28T15:37:26.719Z,51.00
2018-08-28T15:40:51.483Z,51.00
2018-08-28T15:44:16.233Z,49.70
2018-08-28T15:47:41.024Z,52.10
2018-08-28T15:51:05.984Z,50.00
2018-08-28T15:54:32.804Z,50.50
2018-08-28T15:57:57.559Z,50.50
2018-08-28T16:01:22.224Z,49.50
2018-08-28T16:04:47.026Z,50.20
2018-08-28T16:08:11.711Z,50.10
2018-08-28T16:11:36.417Z,50.80
2018-08-28T16:15:01.078Z,51.00
2018-08-28T16:18:25.789Z,50.60
2018-08-28T16:21:55.346Z,50.30
2018-08-28T16:25:20.111Z,50.60
2018-08-28T16:28:44.760Z,50.80
2018-08-28T16:40:15.766Z,51.80
2018-08-28T16:43:40.521Z,50.50
2018-08-28T16:47:05.259Z,49.90
2018-08-28T16:50:29.979Z,50.70
2018-08-28T16:53:54.673Z,50.80
2018-08-28T16:57:19.308Z,51.60
2018-08-28T17:00:43.950Z,52.50
2018-08-28T17:04:08.604Z,54.60
2018-08-28T17:07:33.261Z,54.90
2018-08-28T17:10:58.042Z,54.70
2018-08-28T17:14:22.764Z,55.60
2018-08-28T17:17:47.564Z,55.10
2018-08-28T17:21:12.217Z,56.70
2018-08-28T17:24:36.936Z,57.90
2018-08-28T17:28:01.580Z,61.20
2018-08-28T17:31:26.291Z,62.90
2018-08-28T17:34:50.983Z,62.00
2018-08-28T17:38:16.260Z,63.00
2018-08-28T17:41:40.965Z,64.60
2018-08-28T17:45:05.658Z,66.70
2018-08-28T17:48:30.375Z,66.40
2018-08-28T17:51:55.030Z,65.50
2018-08-28T17:55:19.692Z,65.50
2018-08-28T17:58:44.366Z,65.90
2018-08-28T18:02:09.533Z,67.90
2018-08-28T18:05:34.324Z,67.40
2018-08-28T18:08:59.066Z,67.70
2018-08-28T18:12:23.789Z,68.60
2018-08-28T18:15:48.556Z,69.70
2018-08-28T18:19:14.289Z,70.40
2018-08-28T18:22:39.704Z,70.70
2018-08-28T18:26:04.962Z,72.90
2018-08-28T18:29:30.409Z,72.50
2018-08-28T18:32:57.666Z,74.00
2018-08-28T18:36:23.323Z,74.00
2018-08-28T18:39:48.679Z,75.10
2018-08-28T18:43:13.985Z,75.50
2018-08-28T18:46:39.445Z,75.90
2018-08-28T18:50:04.899Z,76.50
2018-08-28T18:53:29.855Z,77.60
2018-08-28T18:56:55.094Z,78.10
2018-08-28T19:00:20.202Z,78.10
2018-08-28T19:03:45.623Z,78.10
2018-08-28T19:07:10.351Z,78.70
2018-08-28T19:10:35.171Z,78.90
2018-08-28T19:14:00.244Z,80.60
2018-08-28T19:17:25.788Z,79.80
2018-08-28T19:20:50.564Z,80.10
2018-08-28T19:24:15.513Z,81.50
2018-08-28T19:27:40.293Z,81.80
2018-08-28T19:31:05.388Z,81.80
2018-08-28T19:34:30.226Z,81.80
2018-08-28T19:37:55.612Z,82.00
2018-08-28T19:41:20.587Z,83.70
2018-08-28T19:44:45.459Z,83.10
2018-08-28T19:48:10.426Z,83.70
2018-08-28T19:51:35.519Z,82.80
2018-08-28T19:55:00.522Z,83.40
2018-08-28T19:58:25.382Z,83.90
2018-08-28T20:01:50.024Z,84.20
2018-08-28T20:05:15.735Z,84.80
2018-08-28T20:08:40.500Z,86.60
2018-08-28T20:12:05.537Z,86.00
2018-08-28T20:15:30.274Z,86.60
2018-08-28T20:18:54.960Z,86.60
2018-08-28T20:22:19.734Z,85.60
2018-08-28T20:25:44.429Z,85.70
2018-08-28T20:29:09.251Z,86.00
2018-08-28T20:32:33.925Z,87.00
2018-08-28T20:35:58.686Z,87.00
2018-08-28T20:39:23.459Z,88.30
2018-08-28T20:42:48.149Z,87.00
2018-08-28T20:46:12.955Z,88.00
2018-08-28T20:49:37.779Z,87.40
2018-08-28T20:53:02.521Z,87.50
2018-08-28T20:56:27.189Z,88.50
2018-08-28T20:59:52.423Z,90.00
2018-08-28T21:03:17.743Z,90.10
2018-08-28T21:06:42.623Z,90.40
2018-08-28T21:10:07.374Z,90.00
2018-08-28T21:13:32.114Z,90.40
2018-08-28T21:16:56.798Z,91.00
2018-08-28T21:20:21.569Z,90.90
2018-08-28T21:23:46.288Z,90.50
2018-08-28T21:27:11.081Z,90.30
2018-08-28T21:30:35.751Z,90.40
2018-08-28T21:34:00.531Z,90.40
2018-08-28T21:37:25.238Z,90.90
2018-08-28T21:40:49.988Z,91.30
2018-08-28T21:44:14.728Z,91.10
2018-08-28T21:47:39.488Z,91.50
2018-08-28T21:51:04.249Z,91.00
2018-08-28T21:54:28.949Z,91.00
2018-08-28T21:57:53.715Z,91.10
2018-08-28T22:01:18.438Z,90.70
2018-08-28T22:04:43.103Z,91.10
2018-08-28T22:08:08.216Z,91.60
2018-08-28T22:11:33.273Z,92.50
2018-08-28T22:14:57.921Z,92.70
2018-08-28T22:18:23.849Z,92.90
2018-08-28T22:21:48.598Z,92.20
2018-08-28T22:25:13.403Z,92.60
2018-08-28T22:36:36.947Z,93.50
2018-08-28T22:40:01.754Z,94.30
2018-08-28T22:43:26.545Z,94.50
2018-08-28T22:46:51.348Z,94.80
2018-08-28T22:50:16.167Z,95.10
2018-08-28T22:53:40.852Z,94.60
2018-08-28T22:57:05.704Z,94.90
2018-08-28T23:00:30.337Z,95.00
2018-08-28T23:03:55.094Z,94.60
2018-08-28T23:07:19.758Z,94.10
2018-08-28T23:10:44.405Z,94.20
2018-08-28T23:14:09.044Z,94.10
2018-08-28T23:17:33.714Z,94.40
2018-08-28T23:20:58.479Z,94.70
2018-08-28T23:24:23.145Z,94.60
2018-08-28T23:27:47.825Z,94.70
2018-08-28T23:31:12.582Z,94.60
2018-08-28T23:34:37.291Z,94.60
2018-08-28T23:38:01.985Z,95.40
2018-08-28T23:41:26.693Z,95.80
2018-08-28T23:44:51.483Z,95.70
2018-08-28T23:48:16.125Z,96.20
2018-08-28T23:51:40.856Z,96.30
2018-08-28T23:55:05.583Z,96.70
2018-08-28T23:58:30.227Z,97.20
